createdAt,value
2023-11-07T00:00:04.721Z,0.60
2023-11-07T00:00:15.739Z,2.00
2023-11-07T00:00:26.732Z,2.00
2023-11-07T00:00:37.525Z,2.00
2023-11-07T00:00:48.576Z,1.60
2023-11-07T00:00:59.541Z,1.60
2023-11-07T00:01:10.316Z,0.70
2023-11-07T00:01:21.363Z,0.20
2023-11-07T00:01:32.336Z,0.30
2023-11-07T00:01:43.121Z,0.40
2023-11-07T00:01:54.163Z,0.30
2023-11-07T00:02:05.155Z,0.40
2023-11-07T00:02:15.891Z,0.90
2023-11-07T00:02:27.047Z,0.80
2023-11-07T00:02:38.127Z,0.80
2023-11-07T00:02:48.940Z,0.40
2023-11-07T00:02:59.509Z,0.30
2023-11-07T00:03:10.504Z,0.70
2023-11-07T00:03:21.406Z,0.70
2023-11-07T00:03:32.045Z,0.60
2023-11-07T00:03:43.162Z,0.80
2023-11-07T00:03:53.996Z,0.70
2023-11-07T00:04:04.565Z,0.70
2023-11-07T00:04:15.563Z,0.40
2023-11-07T00:04:26.324Z,0.70
2023-11-07T00:04:37.353Z,0.40
2023-11-07T00:04:48.316Z,0.70
2023-11-07T00:04:59.091Z,0.50
2023-11-07T00:05:10.213Z,0.50
2023-11-07T00:05:20.805Z,0.40
2023-11-07T00:05:31.628Z,0.40
2023-11-07T00:05:42.207Z,0.40
2023-11-07T00:05:53.203Z,0.50
2023-11-07T00:06:03.991Z,0.60
2023-11-07T00:06:15.017Z,1.00
2023-11-07T00:06:25.984Z,1.00
2023-11-07T00:06:36.724Z,0.90
2023-11-07T00:06:47.787Z,0.40
2023-11-07T00:06:58.748Z,0.60
2023-11-07T00:07:09.512Z,0.70
2023-11-07T00:07:20.585Z,0.80
2023-11-07T00:07:31.624Z,0.70
2023-11-07T00:07:42.361Z,1.10
2023-11-07T00:07:53.432Z,1.10
2023-11-07T00:08:04.472Z,1.40
2023-11-07T00:08:15.234Z,1.00
2023-11-07T00:08:26.342Z,0.70
2023-11-07T00:08:37.342Z,1.00
2023-11-07T00:08:48.160Z,1.50
2023-11-07T00:08:58.672Z,1.40
2023-11-07T00:09:09.609Z,1.10
2023-11-07T00:09:20.387Z,0.30
2023-11-07T00:09:31.418Z,0.30
2023-11-07T00:09:42.397Z,1.00
2023-11-07T00:09:53.167Z,0.90
2023-11-07T00:10:04.202Z,0.90
2023-11-07T00:10:15.182Z,0.70
2023-11-07T00:10:25.945Z,0.70
2023-11-07T00:10:37.033Z,0.50
2023-11-07T00:10:47.962Z,0.30
2023-11-07T00:10:58.744Z,0.20
2023-11-07T00:11:09.782Z,0.70
2023-11-07T00:11:20.749Z,0.90
2023-11-07T00:11:31.559Z,0.80
2023-11-07T00:11:42.617Z,0.40
2023-11-07T00:11:53.633Z,0.60
2023-11-07T00:12:04.393Z,1.20
2023-11-07T00:12:15.400Z,1.20
2023-11-07T00:12:26.373Z,0.90
2023-11-07T00:12:37.162Z,0.50
2023-11-07T00:12:48.225Z,0.60
2023-11-07T00:12:59.194Z,0.70
2023-11-07T00:13:10.019Z,0.50
2023-11-07T00:13:20.548Z,0.50
2023-11-07T00:13:31.513Z,0.40
2023-11-07T00:13:42.269Z,0.30
2023-11-07T00:13:53.337Z,0.30
2023-11-07T00:14:04.336Z,0.40
2023-11-07T00:14:15.130Z,0.40
2023-11-07T00:14:26.185Z,0.20
2023-11-07T00:14:37.178Z,0.50
2023-11-07T00:14:48.010Z,0.60
2023-11-07T00:14:58.581Z,0.70
2023-11-07T00:15:09.631Z,0.70
2023-11-07T00:15:20.357Z,1.40
2023-11-07T00:15:31.422Z,1.10
2023-11-07T00:15:42.380Z,1.20
2023-11-07T00:15:53.182Z,0.40
2023-11-07T00:16:04.232Z,0.30
2023-11-07T00:16:15.184Z,0.10
2023-11-07T00:16:25.964Z,0.10
2023-11-07T00:16:37.034Z,0.50
2023-11-07T00:16:47.975Z,0.50
2023-11-07T00:16:58.748Z,0.60
2023-11-07T00:17:09.810Z,0.40
2023-11-07T00:17:20.780Z,0.30
2023-11-07T00:17:31.684Z,0.20
2023-11-07T00:17:42.436Z,0.40
2023-11-07T00:17:52.999Z,0.70
2023-11-07T00:18:03.881Z,0.90
2023-11-07T00:18:14.494Z,0.70
2023-11-07T00:18:25.561Z,0.10
2023-11-07T00:18:36.393Z,0.30
2023-11-07T00:18:47.102Z,0.50
2023-11-07T00:18:57.704Z,1.00
2023-11-07T00:19:08.688Z,1.00
2023-11-07T00:19:19.353Z,0.90
2023-11-07T00:19:29.773Z,0.60
2023-11-07T00:19:40.547Z,0.50
2023-11-07T00:19:51.647Z,0.30
2023-11-07T00:20:05.121Z,0.30
2023-11-07T00:20:13.442Z,0.30
2023-11-07T00:20:24.499Z,0.40
2023-11-07T00:20:35.525Z,0.40
2023-11-07T00:20:46.343Z,0.30
2023-11-07T00:20:56.856Z,0.30
2023-11-07T00:21:07.871Z,0.10
2023-11-07T00:21:18.612Z,0.10
2023-11-07T00:21:29.669Z,0.30
2023-11-07T00:21:40.625Z,0.40
2023-11-07T00:21:51.386Z,0.50
2023-11-07T00:22:02.541Z,0.60
2023-11-07T00:22:13.505Z,0.60
2023-11-07T00:22:24.281Z,0.40
2023-11-07T00:22:35.332Z,0.20
2023-11-07T00:22:46.286Z,0.30
2023-11-07T00:22:57.059Z,0.20
2023-11-07T00:23:08.091Z,0.30
2023-11-07T00:23:19.068Z,0.60
2023-11-07T00:23:29.867Z,0.50
2023-11-07T00:23:40.995Z,1.40
2023-11-07T00:23:52.020Z,1.60
2023-11-07T00:24:02.793Z,2.20
2023-11-07T00:24:13.816Z,0.60
2023-11-07T00:24:24.782Z,0.50
2023-11-07T00:24:35.550Z,0.90
2023-11-07T00:24:46.632Z,1.00
2023-11-07T00:24:57.560Z,1.00
2023-11-07T00:25:08.338Z,0.20
2023-11-07T00:25:19.369Z,0.20
2023-11-07T00:25:30.415Z,0.50
2023-11-07T00:25:41.152Z,0.50
2023-11-07T00:25:52.219Z,0.90
2023-11-07T00:26:03.163Z,0.70
2023-11-07T00:26:13.940Z,0.90
2023-11-07T00:26:24.999Z,0.60
2023-11-07T00:26:35.987Z,0.40
2023-11-07T00:26:46.766Z,0.20
2023-11-07T00:26:57.845Z,0.20
2023-11-07T00:27:08.874Z,0.30
2023-11-07T00:27:19.640Z,0.40
2023-11-07T00:27:30.707Z,0.30
2023-11-07T00:27:41.642Z,0.50
2023-11-07T00:27:52.418Z,0.50
2023-11-07T00:28:03.460Z,0.30
2023-11-07T00:28:14.471Z,0.50
2023-11-07T00:28:25.217Z,0.40
2023-11-07T00:28:36.265Z,0.90
2023-11-07T00:28:47.241Z,1.30
2023-11-07T00:28:58.050Z,1.20
2023-11-07T00:29:09.128Z,1.10
2023-11-07T00:29:20.093Z,0.50
2023-11-07T00:29:30.892Z,0.60
2023-11-07T00:29:41.934Z,1.20
2023-11-07T00:29:52.904Z,1.20
2023-11-07T00:30:03.669Z,0.40
2023-11-07T00:30:14.690Z,0.60
2023-11-07T00:30:25.721Z,0.70
2023-11-07T00:30:36.451Z,0.70
2023-11-07T00:30:47.500Z,0.50
2023-11-07T00:30:58.466Z,0.50
2023-11-07T00:31:09.246Z,0.60
2023-11-07T00:31:20.316Z,1.20
2023-11-07T00:31:31.268Z,0.80
2023-11-07T00:31:42.052Z,0.80
2023-11-07T00:31:53.080Z,0.30
2023-11-07T00:32:04.051Z,0.90
2023-11-07T00:32:14.828Z,0.80
2023-11-07T00:32:25.899Z,1.20
2023-11-07T00:32:36.995Z,1.00
2023-11-07T00:32:47.829Z,1.00
2023-11-07T00:32:58.440Z,0.70
2023-11-07T00:33:09.076Z,0.40
2023-11-07T00:33:19.959Z,0.30
2023-11-07T00:33:30.545Z,0.80
2023-11-07T00:33:41.672Z,0.60
2023-11-07T00:33:52.562Z,0.50
2023-11-07T00:34:03.150Z,0.80
2023-11-07T00:34:14.271Z,1.30
2023-11-07T00:34:25.090Z,1.10
2023-11-07T00:34:35.681Z,0.70
2023-11-07T00:34:46.621Z,0.30
2023-11-07T00:34:57.385Z,0.40
2023-11-07T00:35:08.438Z,0.30
2023-11-07T00:35:19.394Z,0.80
2023-11-07T00:35:30.201Z,0.60
2023-11-07T00:35:41.228Z,0.20
2023-11-07T00:35:52.227Z,0.20
2023-11-07T00:36:02.983Z,0.20
2023-11-07T00:36:14.014Z,0.30
2023-11-07T00:36:24.978Z,0.30
2023-11-07T00:36:35.741Z,0.30
2023-11-07T00:36:46.787Z,0.20
2023-11-07T00:36:57.756Z,0.20
2023-11-07T00:37:08.557Z,0.60
2023-11-07T00:37:19.569Z,0.60
2023-11-07T00:37:30.550Z,1.10
2023-11-07T00:37:41.306Z,0.80
2023-11-07T00:37:52.358Z,0.90
2023-11-07T00:38:03.326Z,0.30
2023-11-07T00:38:14.104Z,0.70
2023-11-07T00:38:25.155Z,0.70
2023-11-07T00:38:36.144Z,0.20
2023-11-07T00:38:46.893Z,0.10
2023-11-07T00:38:58.007Z,0.40
2023-11-07T00:39:09.001Z,0.60
2023-11-07T00:39:19.741Z,0.70
2023-11-07T00:39:30.804Z,0.70
2023-11-07T00:39:41.764Z,0.60
2023-11-07T00:39:52.534Z,0.30
2023-11-07T00:40:03.570Z,0.70
2023-11-07T00:40:14.569Z,1.10
2023-11-07T00:40:25.372Z,1.00
2023-11-07T00:40:36.420Z,0.80
2023-11-07T00:40:47.479Z,0.30
2023-11-07T00:40:58.216Z,0.30
2023-11-07T00:41:09.335Z,0.30
2023-11-07T00:41:20.287Z,0.40
2023-11-07T00:41:31.048Z,0.40
2023-11-07T00:41:42.109Z,0.30
2023-11-07T00:41:53.082Z,0.20
2023-11-07T00:42:03.908Z,2.00
2023-11-07T00:42:14.382Z,1.90
2023-11-07T00:42:25.388Z,0.60
2023-11-07T00:42:36.148Z,0.70
2023-11-07T00:42:47.206Z,0.70
2023-11-07T00:42:58.183Z,0.90
2023-11-07T00:43:08.938Z,0.90
2023-11-07T00:43:19.993Z,2.00
2023-11-07T00:43:30.981Z,1.60
2023-11-07T00:43:41.976Z,1.70
2023-11-07T00:43:52.475Z,0.30
2023-11-07T00:44:03.434Z,0.10
2023-11-07T00:44:14.216Z,0.70
2023-11-07T00:44:25.275Z,0.80
2023-11-07T00:44:36.263Z,1.00
2023-11-07T00:44:47.030Z,0.80
2023-11-07T00:44:58.145Z,0.80
2023-11-07T00:45:09.065Z,0.50
2023-11-07T00:45:19.852Z,0.70
2023-11-07T00:45:30.888Z,0.50
2023-11-07T00:45:41.875Z,0.40
2023-11-07T00:45:52.670Z,0.20
2023-11-07T00:46:03.721Z,0.30
2023-11-07T00:46:14.692Z,0.30
2023-11-07T00:46:25.458Z,0.50
2023-11-07T00:46:36.504Z,0.20
2023-11-07T00:46:47.467Z,0.20
2023-11-07T00:46:58.240Z,0.10
2023-11-07T00:47:09.295Z,0.10
2023-11-07T00:47:20.284Z,0.10
2023-11-07T00:47:31.181Z,0.40
2023-11-07T00:47:41.807Z,0.70
2023-11-07T00:47:52.845Z,0.80
2023-11-07T00:48:03.732Z,0.60
2023-11-07T00:48:14.376Z,0.40
2023-11-07T00:48:24.905Z,0.30
2023-11-07T00:48:35.739Z,0.20
2023-11-07T00:48:46.485Z,0.20
2023-11-07T00:48:57.360Z,0.20
2023-11-07T00:49:08.266Z,0.30
2023-11-07T00:49:18.905Z,0.20
2023-11-07T00:49:29.342Z,1.00
2023-11-07T00:49:40.107Z,1.10
2023-11-07T00:49:51.145Z,1.40
2023-11-07T00:50:02.144Z,0.60
2023-11-07T00:50:12.873Z,0.40
2023-11-07T00:50:23.922Z,0.10
2023-11-07T00:50:34.924Z,0.60
2023-11-07T00:50:45.672Z,0.70
2023-11-07T00:50:56.836Z,0.10
2023-11-07T00:51:07.282Z,0.20
2023-11-07T00:51:18.021Z,0.30
2023-11-07T00:51:29.107Z,0.60
2023-11-07T00:51:40.058Z,0.90
2023-11-07T00:51:50.828Z,0.70
2023-11-07T00:52:01.899Z,0.40
2023-11-07T00:52:12.855Z,0.10
2023-11-07T00:52:23.626Z,0.90
2023-11-07T00:52:34.677Z,1.00
2023-11-07T00:52:45.647Z,1.00
2023-11-07T00:52:56.418Z,0.10
2023-11-07T00:53:07.469Z,0.20
2023-11-07T00:53:18.439Z,0.30
2023-11-07T00:53:29.223Z,0.50
2023-11-07T00:53:40.255Z,0.90
2023-11-07T00:53:51.391Z,0.80
2023-11-07T00:54:02.165Z,0.50
2023-11-07T00:54:13.213Z,0.10
2023-11-07T00:54:24.180Z,0.50
2023-11-07T00:54:34.977Z,0.60
2023-11-07T00:54:46.005Z,0.20
2023-11-07T00:54:57.066Z,0.20
2023-11-07T00:55:07.883Z,0.10
2023-11-07T00:55:18.351Z,0.10
2023-11-07T00:55:29.335Z,0.50
2023-11-07T00:55:40.095Z,0.60
2023-11-07T00:55:51.123Z,0.30
2023-11-07T00:56:02.088Z,0.40
2023-11-07T00:56:12.863Z,0.30
2023-11-07T00:56:23.927Z,0.20
2023-11-07T00:56:34.955Z,0.10
2023-11-07T00:56:45.701Z,0.10
2023-11-07T00:56:56.775Z,0.10
2023-11-07T00:57:07.788Z,0.10
2023-11-07T00:57:18.626Z,0.20
2023-11-07T00:57:29.659Z,0.20
2023-11-07T00:57:40.635Z,0.90
2023-11-07T00:57:51.400Z,1.30
2023-11-07T00:58:02.491Z,1.00
2023-11-07T00:58:13.476Z,0.50
2023-11-07T00:58:24.261Z,0.60
2023-11-07T00:58:35.311Z,0.40
2023-11-07T00:58:46.279Z,0.30
2023-11-07T00:58:57.297Z,0.20
2023-11-07T00:59:07.763Z,0.20
2023-11-07T00:59:18.739Z,0.20
2023-11-07T00:59:29.586Z,0.10
2023-11-07T00:59:40.115Z,0.30
2023-11-07T00:59:51.082Z,0.30
2023-11-07T01:00:01.882Z,0.10
2023-11-07T01:00:12.390Z,0.40
2023-11-07T01:00:23.376Z,1.00
2023-11-07T01:00:34.134Z,0.90
2023-11-07T01:00:45.189Z,0.30
2023-11-07T01:00:56.149Z,0.20
2023-11-07T01:01:06.929Z,0.30
2023-11-07T01:01:17.491Z,0.30
2023-11-07T01:01:28.473Z,0.40
2023-11-07T01:01:39.255Z,0.30
2023-11-07T01:01:50.290Z,0.60
2023-11-07T01:02:01.336Z,0.50
2023-11-07T01:02:12.055Z,0.70
2023-11-07T01:02:23.124Z,0.70
2023-11-07T01:02:34.148Z,0.60
2023-11-07T01:02:46.213Z,1.30
2023-11-07T01:02:56.024Z,1.10
2023-11-07T01:03:06.585Z,1.10
2023-11-07T01:03:17.436Z,0.60
2023-11-07T01:03:28.041Z,0.50
2023-11-07T01:03:39.107Z,0.10
2023-11-07T01:03:50.099Z,0.10
2023-11-07T01:04:00.901Z,0.50
2023-11-07T01:04:11.665Z,0.40
2023-11-07T01:04:22.539Z,0.50
2023-11-07T01:04:33.128Z,0.20
2023-11-07T01:04:44.142Z,0.20
2023-11-07T01:04:54.896Z,0.10
2023-11-07T01:05:06.029Z,0.10
2023-11-07T01:05:17.123Z,0.40
2023-11-07T01:05:28.274Z,0.50
2023-11-07T01:05:39.017Z,0.70
2023-11-07T01:05:50.073Z,0.90
2023-11-07T01:06:00.889Z,0.40
2023-11-07T01:06:11.446Z,0.40
2023-11-07T01:06:22.463Z,0.20
2023-11-07T01:06:33.246Z,0.20
2023-11-07T01:06:44.368Z,0.20
2023-11-07T01:06:55.360Z,0.20
2023-11-07T01:07:06.080Z,0.30
2023-11-07T01:07:17.170Z,0.20
2023-11-07T01:07:28.119Z,0.20
2023-11-07T01:07:38.888Z,0.10
2023-11-07T01:07:49.989Z,0.20
2023-11-07T01:08:00.963Z,0.20
2023-11-07T01:08:11.686Z,0.40
2023-11-07T01:08:22.769Z,0.60
2023-11-07T01:08:33.764Z,0.50
2023-11-07T01:08:44.530Z,0.40
2023-11-07T01:08:55.104Z,0.10
2023-11-07T01:09:06.105Z,0.20
2023-11-07T01:09:16.859Z,0.40
2023-11-07T01:09:27.951Z,0.30
2023-11-07T01:09:38.895Z,0.50
2023-11-07T01:09:49.678Z,0.40
2023-11-07T01:10:00.736Z,0.50
2023-11-07T01:10:11.712Z,0.70
2023-11-07T01:10:22.514Z,0.90
2023-11-07T01:10:33.049Z,1.00
2023-11-07T01:10:43.995Z,0.50
2023-11-07T01:10:54.764Z,0.20
2023-11-07T01:11:05.808Z,0.20
2023-11-07T01:11:16.780Z,0.30
2023-11-07T01:11:27.639Z,0.20
2023-11-07T01:11:38.168Z,0.20
2023-11-07T01:11:49.112Z,0.40
2023-11-07T01:11:59.909Z,0.70
2023-11-07T01:12:10.930Z,0.80
2023-11-07T01:12:21.894Z,0.50
2023-11-07T01:12:32.725Z,0.30
2023-11-07T01:12:43.210Z,0.10
2023-11-07T01:12:54.350Z,0.60
2023-11-07T01:13:05.123Z,1.10
2023-11-07T01:13:16.165Z,1.20
2023-11-07T01:13:27.127Z,0.90
2023-11-07T01:13:37.904Z,0.60
2023-11-07T01:13:48.954Z,0.60
2023-11-07T01:13:59.944Z,0.70
2023-11-07T01:14:10.736Z,0.50
2023-11-07T01:14:21.768Z,0.40
2023-11-07T01:14:32.756Z,0.50
2023-11-07T01:14:43.592Z,0.80
2023-11-07T01:14:54.645Z,0.50
2023-11-07T01:15:05.601Z,0.60
2023-11-07T01:15:16.340Z,0.30
2023-11-07T01:15:27.390Z,0.40
2023-11-07T01:15:38.359Z,0.70
2023-11-07T01:15:49.135Z,0.80
2023-11-07T01:16:00.176Z,0.30
2023-11-07T01:16:11.310Z,0.40
2023-11-07T01:16:22.079Z,0.50
2023-11-07T01:16:33.119Z,0.50
2023-11-07T01:16:44.084Z,0.40
2023-11-07T01:16:54.857Z,0.40
2023-11-07T01:17:05.926Z,0.50
2023-11-07T01:17:16.863Z,0.40
2023-11-07T01:17:27.838Z,0.30
2023-11-07T01:17:38.664Z,0.50
2023-11-07T01:17:49.305Z,0.40
2023-11-07T01:18:00.267Z,0.40
2023-11-07T01:18:10.945Z,0.20
2023-11-07T01:18:21.487Z,0.40
2023-11-07T01:18:32.383Z,0.70
2023-11-07T01:18:42.999Z,0.80
2023-11-07T01:18:53.614Z,0.60
2023-11-07T01:19:04.821Z,0.30
2023-11-07T01:19:15.540Z,0.60
2023-11-07T01:19:26.067Z,0.50
2023-11-07T01:19:36.806Z,0.30
2023-11-07T01:19:47.854Z,0.20
2023-11-07T01:19:58.829Z,0.10
2023-11-07T01:20:09.627Z,0.20
2023-11-07T01:20:20.668Z,1.30
2023-11-07T01:20:31.650Z,1.60
2023-11-07T01:20:42.427Z,1.80
2023-11-07T01:20:53.518Z,0.60
2023-11-07T01:21:04.473Z,2.20
2023-11-07T01:21:15.270Z,2.20
2023-11-07T01:21:26.280Z,2.30
2023-11-07T01:21:37.244Z,0.30
2023-11-07T01:21:48.010Z,0.30
2023-11-07T01:21:59.116Z,0.10
2023-11-07T01:22:10.065Z,0.50
2023-11-07T01:22:20.847Z,0.50
2023-11-07T01:22:31.888Z,0.70
2023-11-07T01:22:42.891Z,0.30
2023-11-07T01:22:53.674Z,0.50
2023-11-07T01:23:04.717Z,0.30
2023-11-07T01:23:15.720Z,0.10
2023-11-07T01:23:26.463Z,0.20
2023-11-07T01:23:37.530Z,0.20
2023-11-07T01:23:48.535Z,0.30
2023-11-07T01:23:59.295Z,0.20
2023-11-07T01:24:10.324Z,0.20
2023-11-07T01:24:21.610Z,0.20
2023-11-07T01:24:32.370Z,0.30
2023-11-07T01:24:43.426Z,0.30
2023-11-07T01:24:54.386Z,0.30
2023-11-07T01:25:05.173Z,0.40
2023-11-07T01:25:16.231Z,0.30
2023-11-07T01:25:27.188Z,0.80
2023-11-07T01:25:38.037Z,0.90
2023-11-07T01:25:49.029Z,0.80
2023-11-07T01:26:00.005Z,0.20
2023-11-07T01:26:10.801Z,0.20
2023-11-07T01:26:21.815Z,0.50
2023-11-07T01:26:32.822Z,0.40
2023-11-07T01:26:43.608Z,0.30
2023-11-07T01:26:54.671Z,0.20
2023-11-07T01:27:05.625Z,0.10
2023-11-07T01:27:16.383Z,0.30
2023-11-07T01:27:27.432Z,0.70
2023-11-07T01:27:38.389Z,0.70
2023-11-07T01:27:49.175Z,1.10
2023-11-07T01:28:00.224Z,1.10
2023-11-07T01:28:11.194Z,0.90
2023-11-07T01:28:21.961Z,0.60
2023-11-07T01:28:33.008Z,0.80
2023-11-07T01:28:43.969Z,0.70
2023-11-07T01:28:54.752Z,0.90
2023-11-07T01:29:05.797Z,1.30
2023-11-07T01:29:16.783Z,0.80
2023-11-07T01:29:27.548Z,0.40
2023-11-07T01:29:38.596Z,0.30
2023-11-07T01:29:49.694Z,0.30
2023-11-07T01:30:00.513Z,0.30
2023-11-07T01:30:11.554Z,0.30
2023-11-07T01:30:22.511Z,0.30
2023-11-07T01:30:33.325Z,0.30
2023-11-07T01:30:44.346Z,0.20
2023-11-07T01:30:55.328Z,0.90
2023-11-07T01:31:06.090Z,0.90
2023-11-07T01:31:17.210Z,0.30
2023-11-07T01:31:28.178Z,0.10
2023-11-07T01:31:38.946Z,0.30
2023-11-07T01:31:50.011Z,0.30
2023-11-07T01:32:00.989Z,0.70
2023-11-07T01:32:11.756Z,0.90
2023-11-07T01:32:22.818Z,0.40
2023-11-07T01:32:33.882Z,0.20
2023-11-07T01:32:44.886Z,0.20
2023-11-07T01:32:55.476Z,0.20
2023-11-07T01:33:06.612Z,0.10
2023-11-07T01:33:17.550Z,0.20
2023-11-07T01:33:28.119Z,0.10
2023-11-07T01:33:39.237Z,0.20
2023-11-07T01:33:50.085Z,0.10
2023-11-07T01:34:00.812Z,0.50
2023-11-07T01:34:11.412Z,0.70
2023-11-07T01:34:22.222Z,0.60
2023-11-07T01:34:32.735Z,0.60
2023-11-07T01:34:43.705Z,0.60
2023-11-07T01:34:54.486Z,0.60
2023-11-07T01:35:05.545Z,0.70
2023-11-07T01:35:16.503Z,0.50
2023-11-07T01:35:27.327Z,0.30
2023-11-07T01:35:38.376Z,0.20
2023-11-07T01:35:49.329Z,0.50
2023-11-07T01:36:00.156Z,0.40
2023-11-07T01:36:11.255Z,0.80
2023-11-07T01:36:22.220Z,0.40
2023-11-07T01:36:32.984Z,0.50
2023-11-07T01:36:44.058Z,0.20
2023-11-07T01:36:55.003Z,1.00
2023-11-07T01:37:05.771Z,1.20
2023-11-07T01:37:16.830Z,0.50
2023-11-07T01:37:27.814Z,0.30
2023-11-07T01:37:38.555Z,0.30
2023-11-07T01:37:49.608Z,0.20
2023-11-07T01:38:00.609Z,0.20
2023-11-07T01:38:11.416Z,0.40
2023-11-07T01:38:22.441Z,0.30
2023-11-07T01:38:33.441Z,1.80
2023-11-07T01:38:44.212Z,1.80
2023-11-07T01:38:55.251Z,2.10
2023-11-07T01:39:06.267Z,0.60
2023-11-07T01:39:17.025Z,0.40
2023-11-07T01:39:28.103Z,0.80
2023-11-07T01:39:39.071Z,0.60
2023-11-07T01:39:49.844Z,1.10
2023-11-07T01:40:00.897Z,0.90
2023-11-07T01:40:11.937Z,0.50
2023-11-07T01:40:22.712Z,0.60
2023-11-07T01:40:33.770Z,0.50
2023-11-07T01:40:44.769Z,0.40
2023-11-07T01:40:55.528Z,0.50
2023-11-07T01:41:06.570Z,0.50
2023-11-07T01:41:17.537Z,0.50
2023-11-07T01:41:28.524Z,0.50
2023-11-07T01:41:39.014Z,0.60
2023-11-07T01:41:50.113Z,1.10
2023-11-07T01:42:00.931Z,1.40
2023-11-07T01:42:11.957Z,0.80
2023-11-07T01:42:22.942Z,0.50
2023-11-07T01:42:33.684Z,0.30
2023-11-07T01:42:44.728Z,0.20
2023-11-07T01:42:55.704Z,0.20
2023-11-07T01:43:06.474Z,0.20
2023-11-07T01:43:17.579Z,0.10
2023-11-07T01:43:28.574Z,0.10
2023-11-07T01:43:39.329Z,0.60
2023-11-07T01:43:50.388Z,1.50
2023-11-07T01:44:01.361Z,1.70
2023-11-07T01:44:12.154Z,1.00
2023-11-07T01:44:23.183Z,0.40
2023-11-07T01:44:34.164Z,0.30
2023-11-07T01:44:45.227Z,0.10
2023-11-07T01:44:56.283Z,0.20
2023-11-07T01:45:07.373Z,0.30
2023-11-07T01:45:18.100Z,0.60
2023-11-07T01:45:29.161Z,0.90
2023-11-07T01:45:40.117Z,0.80
2023-11-07T01:45:50.887Z,0.40
2023-11-07T01:46:01.991Z,0.10
2023-11-07T01:46:12.920Z,0.20
2023-11-07T01:46:23.684Z,0.30
2023-11-07T01:46:34.738Z,0.70
2023-11-07T01:46:45.713Z,0.60
2023-11-07T01:46:56.490Z,0.60
2023-11-07T01:47:07.552Z,0.30
2023-11-07T01:47:18.502Z,0.40
2023-11-07T01:47:29.348Z,0.40
2023-11-07T01:47:39.907Z,0.20
2023-11-07T01:47:50.507Z,0.20
2023-11-07T01:48:01.285Z,0.20
2023-11-07T01:48:12.510Z,0.20
2023-11-07T01:48:23.141Z,0.10
2023-11-07T01:48:34.043Z,0.30
2023-11-07T01:48:44.724Z,0.40
2023-11-07T01:48:55.327Z,0.60
2023-11-07T01:49:06.161Z,0.60
2023-11-07T01:49:17.276Z,0.40
2023-11-07T01:49:28.249Z,0.70
2023-11-07T01:49:39.006Z,0.50
2023-11-07T01:49:50.035Z,0.40
2023-11-07T01:50:00.997Z,0.60
2023-11-07T01:50:11.891Z,0.70
2023-11-07T01:50:22.374Z,0.50
2023-11-07T01:50:33.391Z,0.50
2023-11-07T01:50:44.146Z,0.40
2023-11-07T01:50:55.223Z,0.20
2023-11-07T01:51:06.211Z,0.10
2023-11-07T01:51:16.938Z,0.20
2023-11-07T01:51:28.004Z,0.20
2023-11-07T01:51:38.953Z,0.20
2023-11-07T01:51:49.717Z,0.30
2023-11-07T01:52:00.797Z,0.40
2023-11-07T01:52:11.737Z,0.40
2023-11-07T01:52:22.513Z,0.40
2023-11-07T01:52:33.549Z,0.30
2023-11-07T01:52:44.547Z,0.30
2023-11-07T01:52:55.378Z,0.10
2023-11-07T01:53:06.400Z,0.10
2023-11-07T01:53:17.369Z,0.10
2023-11-07T01:53:28.130Z,0.30
2023-11-07T01:53:39.201Z,0.40
2023-11-07T01:53:50.170Z,0.80
2023-11-07T01:54:01.026Z,0.70
2023-11-07T01:54:11.489Z,0.70
2023-11-07T01:54:22.487Z,0.40
2023-11-07T01:54:33.248Z,0.20
2023-11-07T01:54:44.337Z,0.20
2023-11-07T01:54:55.318Z,0.30
2023-11-07T01:55:06.081Z,0.70
2023-11-07T01:55:17.178Z,0.60
2023-11-07T01:55:28.128Z,0.30
2023-11-07T01:55:38.906Z,0.20
2023-11-07T01:55:49.448Z,0.30
2023-11-07T01:56:00.393Z,0.20
2023-11-07T01:56:11.163Z,0.30
2023-11-07T01:56:22.246Z,0.30
2023-11-07T01:56:33.196Z,0.60
2023-11-07T01:56:43.982Z,0.40
2023-11-07T01:56:55.075Z,0.70
2023-11-07T01:57:06.091Z,0.40
2023-11-07T01:57:16.823Z,0.50
2023-11-07T01:57:27.858Z,0.40
2023-11-07T01:57:38.829Z,0.40
2023-11-07T01:57:49.586Z,0.30
2023-11-07T01:58:00.680Z,0.30
2023-11-07T01:58:11.635Z,0.20
2023-11-07T01:58:22.434Z,0.30
2023-11-07T01:58:33.471Z,0.50
2023-11-07T01:58:44.443Z,0.50
2023-11-07T01:58:55.206Z,0.30
2023-11-07T01:59:06.264Z,0.20
2023-11-07T01:59:17.230Z,0.60
2023-11-07T01:59:28.004Z,0.70
2023-11-07T01:59:39.077Z,0.50
2023-11-07T01:59:50.136Z,0.90
2023-11-07T02:00:00.920Z,1.00
2023-11-07T02:00:11.968Z,0.40
2023-11-07T02:00:22.951Z,0.30
2023-11-07T02:00:33.746Z,0.30
2023-11-07T02:00:44.758Z,0.60
2023-11-07T02:00:55.734Z,0.50
2023-11-07T02:01:06.493Z,0.50
2023-11-07T02:01:17.561Z,0.30
2023-11-07T02:01:28.560Z,0.30
2023-11-07T02:01:39.309Z,0.30
2023-11-07T02:01:50.361Z,0.20
2023-11-07T02:02:01.331Z,0.10
2023-11-07T02:02:12.132Z,0.10
2023-11-07T02:02:22.704Z,0.20
2023-11-07T02:02:33.717Z,0.20
2023-11-07T02:02:44.715Z,0.30
2023-11-07T02:02:55.362Z,0.20
2023-11-07T02:03:06.387Z,0.10
2023-11-07T02:03:17.343Z,0.10
2023-11-07T02:03:27.993Z,0.10
2023-11-07T02:03:38.612Z,0.20
2023-11-07T02:03:49.575Z,0.30
2023-11-07T02:04:00.276Z,0.20
2023-11-07T02:04:10.836Z,0.50
2023-11-07T02:04:21.779Z,0.60
2023-11-07T02:04:32.341Z,0.60
2023-11-07T02:04:43.406Z,0.70
2023-11-07T02:04:54.189Z,0.60
2023-11-07T02:05:05.211Z,0.40
2023-11-07T02:05:16.193Z,0.50
2023-11-07T02:05:26.974Z,0.70
2023-11-07T02:05:38.023Z,0.70
2023-11-07T02:05:49.137Z,0.50
2023-11-07T02:05:59.919Z,0.50
2023-11-07T02:06:10.978Z,0.40
2023-11-07T02:06:22.000Z,0.50
2023-11-07T02:06:32.741Z,0.20
2023-11-07T02:06:43.773Z,0.30
2023-11-07T02:06:54.745Z,0.30
2023-11-07T02:07:05.508Z,0.20
2023-11-07T02:07:16.559Z,0.30
2023-11-07T02:07:27.529Z,0.40
2023-11-07T02:07:38.322Z,0.90
2023-11-07T02:07:49.385Z,0.60
2023-11-07T02:08:00.380Z,0.80
2023-11-07T02:08:11.132Z,0.70
2023-11-07T02:08:22.188Z,0.60
2023-11-07T02:08:33.158Z,0.40
2023-11-07T02:08:43.942Z,0.20
2023-11-07T02:08:54.990Z,0.30
2023-11-07T02:09:05.963Z,0.40
2023-11-07T02:09:16.706Z,0.30
2023-11-07T02:09:27.767Z,0.10
2023-11-07T02:09:38.724Z,0.10
2023-11-07T02:09:49.518Z,0.20
2023-11-07T02:10:00.553Z,0.20
2023-11-07T02:10:11.570Z,0.20
2023-11-07T02:10:22.330Z,0.20
2023-11-07T02:10:33.383Z,0.60
2023-11-07T02:10:44.365Z,0.60
2023-11-07T02:10:55.187Z,0.50
2023-11-07T02:11:05.678Z,0.30
2023-11-07T02:11:16.633Z,1.00
2023-11-07T02:11:27.395Z,1.00
2023-11-07T02:11:38.478Z,1.00
2023-11-07T02:11:49.496Z,0.60
2023-11-07T02:12:00.291Z,0.60
2023-11-07T02:12:10.850Z,0.20
2023-11-07T02:12:21.776Z,0.10
2023-11-07T02:12:32.547Z,0.10
2023-11-07T02:12:43.604Z,0.20
2023-11-07T02:12:54.571Z,0.40
2023-11-07T02:13:05.334Z,0.60
2023-11-07T02:13:16.381Z,0.50
2023-11-07T02:13:27.394Z,0.60
2023-11-07T02:13:38.184Z,0.30
2023-11-07T02:13:49.232Z,0.50
2023-11-07T02:14:00.243Z,0.30
2023-11-07T02:14:10.989Z,0.30
2023-11-07T02:14:22.036Z,0.30
2023-11-07T02:14:33.036Z,0.30
2023-11-07T02:14:43.803Z,0.50
2023-11-07T02:14:54.829Z,0.40
2023-11-07T02:15:05.893Z,1.00
2023-11-07T02:15:16.661Z,0.90
2023-11-07T02:15:27.989Z,1.30
2023-11-07T02:15:38.503Z,0.60
2023-11-07T02:15:49.284Z,0.50
2023-11-07T02:16:00.350Z,0.10
2023-11-07T02:16:11.381Z,0.10
2023-11-07T02:16:22.156Z,0.60
2023-11-07T02:16:33.197Z,0.50
2023-11-07T02:16:44.166Z,0.30
2023-11-07T02:16:54.934Z,0.70
2023-11-07T02:17:05.978Z,0.90
2023-11-07T02:17:16.950Z,0.60
2023-11-07T02:17:27.737Z,0.20
2023-11-07T02:17:38.896Z,0.30
2023-11-07T02:17:49.433Z,0.30
2023-11-07T02:18:00.350Z,0.40
2023-11-07T02:18:10.948Z,0.40
2023-11-07T02:18:21.990Z,0.50
2023-11-07T02:18:32.805Z,0.40
2023-11-07T02:18:43.385Z,0.40
2023-11-07T02:18:54.405Z,0.40
2023-11-07T02:19:05.175Z,0.60
2023-11-07T02:19:16.286Z,0.70
2023-11-07T02:19:27.227Z,0.80
2023-11-07T02:19:38.088Z,1.00
2023-11-07T02:19:48.577Z,1.10
2023-11-07T02:19:59.579Z,1.20
2023-11-07T02:20:10.324Z,1.10
2023-11-07T02:20:21.366Z,0.70
2023-11-07T02:20:32.417Z,0.30
2023-11-07T02:20:43.189Z,0.70
2023-11-07T02:20:53.740Z,1.20
2023-11-07T02:21:04.772Z,0.90
2023-11-07T02:21:15.540Z,0.60
2023-11-07T02:21:26.626Z,0.50
2023-11-07T02:21:37.567Z,0.30
2023-11-07T02:21:48.323Z,0.30
2023-11-07T02:21:59.386Z,0.30
2023-11-07T02:22:10.359Z,0.40
2023-11-07T02:22:21.126Z,0.50
2023-11-07T02:22:32.208Z,1.20
2023-11-07T02:22:43.953Z,1.10
2023-11-07T02:22:54.151Z,0.20
2023-11-07T02:23:05.216Z,0.20
2023-11-07T02:23:16.159Z,0.10
2023-11-07T02:23:26.964Z,0.50
2023-11-07T02:23:38.059Z,0.70
2023-11-07T02:23:49.033Z,0.60
2023-11-07T02:23:59.814Z,0.50
2023-11-07T02:24:10.425Z,0.40
2023-11-07T02:24:21.443Z,0.30
2023-11-07T02:24:32.294Z,0.20
2023-11-07T02:24:42.798Z,0.30
2023-11-07T02:24:53.743Z,0.40
2023-11-07T02:25:04.502Z,0.40